createdAt,value
2023-04-28T00:00:14.195Z,12.20
2023-04-28T00:02:40.784Z,12.60
2023-04-28T00:05:07.757Z,11.60
2023-04-28T00:07:34.718Z,12.60
2023-04-28T00:10:01.195Z,13.10
2023-04-28T00:12:27.655Z,12.15
2023-04-28T00:14:54.168Z,12.52
2023-04-28T00:17:20.758Z,13.20
2023-04-28T00:19:47.343Z,12.50
2023-04-28T00:22:15.132Z,12.48
2023-04-28T00:24:41.955Z,12.52
2023-04-28T00:27:08.448Z,12.10
2023-04-28T00:29:34.969Z,12.52
2023-04-28T00:32:01.541Z,12.95
2023-04-28T00:34:29.324Z,12.95
2023-04-28T00:36:56.020Z,12.80
2023-04-28T00:39:23.205Z,13.00
2023-04-28T00:41:49.798Z,12.95
2023-04-28T00:44:16.863Z,13.43
2023-04-28T00:46:43.774Z,12.52
2023-04-28T00:49:10.807Z,13.00
2023-04-28T00:51:37.332Z,12.90
2023-04-28T00:54:07.488Z,13.00
2023-04-28T00:56:34.458Z,13.45
2023-04-28T00:59:00.925Z,12.75
2023-04-28T01:01:27.545Z,13.32
2023-04-28T01:03:54.271Z,13.52
2023-04-28T01:06:21.137Z,13.43
2023-04-28T01:08:51.081Z,13.35
2023-04-28T01:11:17.825Z,13.85
2023-04-28T01:13:44.464Z,13.07
2023-04-28T01:16:11.454Z,14.45
2023-04-28T01:18:38.847Z,12.75
2023-04-28T01:21:05.673Z,12.60
2023-04-28T01:23:32.195Z,13.77
2023-04-28T01:25:58.734Z,12.88
2023-04-28T01:28:25.202Z,14.55
2023-04-28T01:30:51.811Z,14.80
2023-04-28T01:33:18.283Z,15.00
2023-04-28T01:35:44.825Z,15.27
2023-04-28T01:38:11.475Z,14.40
2023-04-28T01:40:37.945Z,15.02
2023-04-28T01:43:04.511Z,14.95
2023-04-28T01:45:30.971Z,14.27
2023-04-28T01:47:57.532Z,15.23
2023-04-28T01:50:24.028Z,14.07
2023-04-28T01:52:50.522Z,14.43
2023-04-28T01:55:17.182Z,14.82
2023-04-28T01:57:43.745Z,13.63
2023-04-28T02:00:10.667Z,14.85
2023-04-28T02:02:37.343Z,14.23
2023-04-28T02:05:04.105Z,15.60
2023-04-28T02:07:30.648Z,14.48
2023-04-28T02:09:57.170Z,15.23
2023-04-28T02:12:23.935Z,13.95
2023-04-28T02:14:51.262Z,13.98
2023-04-28T02:17:17.818Z,14.80
2023-04-28T02:19:44.332Z,15.00
2023-04-28T02:22:10.991Z,15.15
2023-04-28T02:24:38.573Z,15.27
2023-04-28T02:27:05.709Z,14.32
2023-04-28T02:29:32.385Z,15.18
2023-04-28T02:31:59.149Z,13.98
2023-04-28T02:34:26.007Z,13.85
2023-04-28T02:36:52.455Z,15.10
2023-04-28T02:39:21.291Z,14.15
2023-04-28T02:41:47.807Z,15.75
2023-04-28T02:44:14.470Z,15.93
2023-04-28T02:46:41.200Z,15.20
2023-04-28T02:49:07.794Z,14.45
2023-04-28T02:51:34.268Z,15.98
2023-04-28T02:54:01.225Z,15.60
2023-04-28T02:56:29.779Z,15.60
2023-04-28T02:58:56.746Z,15.10
2023-04-28T03:01:23.663Z,13.65
2023-04-28T03:03:50.447Z,14.82
2023-04-28T03:06:17.205Z,14.60
2023-04-28T03:08:43.797Z,14.25
2023-04-28T03:11:11.126Z,13.95
2023-04-28T03:13:37.646Z,14.30
2023-04-28T03:16:04.501Z,15.07
2023-04-28T03:18:30.949Z,13.90
2023-04-28T03:20:57.514Z,14.30
2023-04-28T03:23:23.990Z,15.07
2023-04-28T03:25:50.440Z,13.50
2023-04-28T03:28:17.240Z,13.00
2023-04-28T03:30:43.692Z,15.05
2023-04-28T03:33:10.266Z,14.38
2023-04-28T03:35:36.786Z,14.80
2023-04-28T03:38:03.215Z,13.27
2023-04-28T03:40:29.776Z,14.77
2023-04-28T03:42:56.373Z,14.43
2023-04-28T03:45:22.885Z,13.50
2023-04-28T03:47:49.409Z,13.82
2023-04-28T03:50:16.019Z,14.02
2023-04-28T03:52:42.521Z,17.20
2023-04-28T03:55:09.451Z,16.02
2023-04-28T03:57:36.165Z,15.55
2023-04-28T04:00:03.350Z,15.07
2023-04-28T04:02:30.077Z,14.15
2023-04-28T04:04:57.118Z,14.68
2023-04-28T04:07:23.847Z,15.45
2023-04-28T04:09:50.354Z,14.93
2023-04-28T04:12:17.036Z,15.65
2023-04-28T04:14:43.634Z,15.95
2023-04-28T04:17:10.171Z,16.75
2023-04-28T04:19:36.699Z,16.17
2023-04-28T04:22:03.252Z,14.55
2023-04-28T04:24:29.822Z,13.98
2023-04-28T04:26:56.319Z,14.05
2023-04-28T04:29:22.789Z,13.73
2023-04-28T04:31:49.692Z,13.30
2023-04-28T04:34:16.473Z,13.65
2023-04-28T04:36:43.224Z,13.20
2023-04-28T04:39:09.701Z,12.85
2023-04-28T04:41:36.274Z,12.57
2023-04-28T04:44:02.748Z,12.27
2023-04-28T04:46:29.303Z,18.30
2023-04-28T04:48:55.964Z,12.55
2023-04-28T04:51:22.592Z,14.27
2023-04-28T04:53:49.132Z,13.25
2023-04-28T04:56:15.801Z,12.48
2023-04-28T04:58:44.491Z,12.15
2023-04-28T05:01:14.547Z,12.07
2023-04-28T05:03:41.306Z,17.10
2023-04-28T05:06:07.938Z,14.35
2023-04-28T05:08:34.396Z,13.32
2023-04-28T05:11:00.875Z,13.25
2023-04-28T05:13:27.373Z,13.57
2023-04-28T05:15:53.854Z,11.90
2023-04-28T05:18:20.698Z,12.35
2023-04-28T05:20:47.259Z,13.23
2023-04-28T05:23:14.098Z,12.90
2023-04-28T05:25:40.619Z,12.60
2023-04-28T05:28:10.470Z,12.60
2023-04-28T05:30:37.134Z,12.52
2023-04-28T05:33:03.817Z,21.13
2023-04-28T05:35:31.594Z,14.55
2023-04-28T05:37:59.123Z,12.70
2023-04-28T05:40:26.361Z,12.60
2023-04-28T05:42:53.187Z,11.55
2023-04-28T05:45:22.798Z,12.98
2023-04-28T05:47:49.359Z,11.88
2023-04-28T05:50:19.134Z,12.23
2023-04-28T05:52:45.832Z,10.93
2023-04-28T05:55:12.302Z,12.50
2023-04-28T05:57:49.198Z,11.02
2023-04-28T06:00:19.524Z,12.10
2023-04-28T06:02:46.127Z,11.68
2023-04-28T06:05:13.253Z,12.35
2023-04-28T06:07:40.701Z,12.50
2023-04-28T06:10:07.770Z,10.95
2023-04-28T06:12:34.341Z,11.82
2023-04-28T06:15:00.862Z,11.07
2023-04-28T06:17:27.532Z,11.60
2023-04-28T06:19:54.705Z,11.10
2023-04-28T06:22:21.172Z,10.77
2023-04-28T06:24:47.909Z,10.82
2023-04-28T06:27:14.595Z,10.73
2023-04-28T06:29:41.092Z,9.95
2023-04-28T06:32:07.613Z,10.68
2023-04-28T06:34:34.893Z,10.13
2023-04-28T06:37:01.721Z,10.25
2023-04-28T06:39:28.366Z,11.77
2023-04-28T06:41:54.937Z,11.00
2023-04-28T06:44:21.397Z,12.10
2023-04-28T06:46:47.956Z,11.88
2023-04-28T06:49:14.599Z,11.05
2023-04-28T06:51:41.135Z,12.00
2023-04-28T06:54:07.653Z,11.35
2023-04-28T06:56:35.974Z,10.27
2023-04-28T06:59:03.305Z,11.27
2023-04-28T07:01:29.999Z,10.77
2023-04-28T07:03:56.989Z,11.77
2023-04-28T07:06:23.967Z,10.73
2023-04-28T07:08:50.982Z,10.98
2023-04-28T07:11:17.528Z,9.77
2023-04-28T07:13:44.093Z,11.35
2023-04-28T07:16:11.227Z,10.43
2023-04-28T07:18:37.898Z,10.77
2023-04-28T07:21:05.655Z,10.80
2023-04-28T07:23:32.589Z,10.55
2023-04-28T07:25:59.127Z,10.25
2023-04-28T07:28:25.773Z,11.32
2023-04-28T07:30:52.235Z,12.00
2023-04-28T07:33:18.901Z,10.70
2023-04-28T07:35:45.373Z,10.18
2023-04-28T07:38:11.973Z,10.60
2023-04-28T07:40:38.583Z,10.85
2023-04-28T07:43:05.197Z,9.98
2023-04-28T07:45:31.838Z,10.30
2023-04-28T07:47:58.479Z,10.00
2023-04-28T07:50:25.440Z,11.68
2023-04-28T07:52:51.995Z,10.73
2023-04-28T07:55:18.527Z,10.02
2023-04-28T07:57:45.022Z,10.63
2023-04-28T08:00:12.162Z,10.02
2023-04-28T08:02:39.035Z,9.13
2023-04-28T08:05:09.900Z,9.32
2023-04-28T08:07:37.388Z,8.95
2023-04-28T08:12:54.684Z,8.80
2023-04-28T08:15:21.235Z,8.80
2023-04-28T08:17:47.804Z,9.68
2023-04-28T08:20:21.085Z,9.30
2023-04-28T08:22:48.844Z,9.25
2023-04-28T08:25:15.989Z,8.70
2023-04-28T08:27:43.222Z,9.18
2023-04-28T08:30:10.400Z,9.20
2023-04-28T08:32:37.054Z,9.70
2023-04-28T08:35:04.955Z,8.65
2023-04-28T08:37:31.516Z,8.70
2023-04-28T08:40:09.511Z,9.30
2023-04-28T08:42:37.614Z,8.60
2023-04-28T08:45:05.565Z,8.30
2023-04-28T08:47:38.527Z,8.35
2023-04-28T08:50:07.323Z,8.88
2023-04-28T08:52:35.346Z,8.57
2023-04-28T08:55:06.583Z,8.77
2023-04-28T08:57:39.438Z,8.45
2023-04-28T09:00:08.227Z,8.65
2023-04-28T09:02:35.692Z,8.02
2023-04-28T09:05:02.573Z,8.80
2023-04-28T09:07:29.193Z,7.93
2023-04-28T09:10:25.747Z,8.40
2023-04-28T09:12:54.235Z,8.93
2023-04-28T09:15:27.768Z,9.18
2023-04-28T09:17:56.518Z,9.02
2023-04-28T09:20:25.234Z,8.80
2023-04-28T09:22:53.375Z,8.35
2023-04-28T09:25:22.084Z,8.57
2023-04-28T09:27:49.666Z,8.90
2023-04-28T09:30:16.502Z,9.50
2023-04-28T09:32:43.112Z,9.20
2023-04-28T09:35:09.688Z,9.63
2023-04-28T09:37:37.585Z,9.45
2023-04-28T09:40:12.420Z,8.45
2023-04-28T09:42:43.441Z,9.30
2023-04-28T09:45:11.331Z,8.85
2023-04-28T09:47:40.639Z,9.63
2023-04-28T09:50:14.717Z,9.25
2023-04-28T09:52:42.194Z,8.60
2023-04-28T09:55:09.143Z,8.82
2023-04-28T09:57:36.480Z,9.57
2023-04-28T10:00:06.748Z,9.25
2023-04-28T10:05:09.957Z,9.65
2023-04-28T10:07:37.729Z,9.00
2023-04-28T10:10:05.562Z,8.90
2023-04-28T10:12:32.995Z,8.40
2023-04-28T10:15:00.111Z,8.30
2023-04-28T10:17:29.539Z,8.25
2023-04-28T10:19:57.069Z,7.80
2023-04-28T10:22:38.915Z,8.07
2023-04-28T10:25:14.400Z,8.15
2023-04-28T10:27:45.464Z,8.35
2023-04-28T10:30:22.937Z,7.65
2023-04-28T10:33:06.624Z,8.93
2023-04-28T10:35:36.186Z,7.60
2023-04-28T10:38:15.170Z,8.55
2023-04-28T10:40:42.689Z,9.07
2023-04-28T10:43:33.247Z,8.75
2023-04-28T10:46:04.961Z,8.50
2023-04-28T10:48:34.956Z,9.15
2023-04-28T10:51:04.754Z,9.40
2023-04-28T10:53:47.086Z,9.02
2023-04-28T10:56:21.462Z,8.90
2023-04-28T10:58:49.316Z,9.10
2023-04-28T11:01:18.941Z,9.27
2023-04-28T11:03:52.443Z,9.35
2023-04-28T11:06:29.592Z,9.27
2023-04-28T11:09:03.311Z,9.40
2023-04-28T11:11:36.477Z,9.48
2023-04-28T11:14:18.403Z,9.50
2023-04-28T11:16:56.060Z,9.15
2023-04-28T11:19:24.704Z,9.45
2023-04-28T11:21:54.698Z,8.50
2023-04-28T11:24:22.354Z,9.80
2023-04-28T11:26:48.852Z,10.00
2023-04-28T11:29:15.604Z,10.80
2023-04-28T11:31:50.899Z,10.38
2023-04-28T11:34:23.939Z,11.18
2023-04-28T11:36:52.300Z,11.68
2023-04-28T11:39:31.591Z,11.40
2023-04-28T11:41:59.755Z,12.00
2023-04-28T11:44:31.808Z,12.15
2023-04-28T11:47:03.255Z,12.93
2023-04-28T11:49:50.764Z,12.20
2023-04-28T11:52:17.398Z,13.25
2023-04-28T11:54:44.196Z,12.60
2023-04-28T11:57:22.261Z,14.60
2023-04-28T11:59:49.940Z,14.52
2023-04-28T12:02:25.385Z,14.02
2023-04-28T12:04:52.160Z,14.90
2023-04-28T12:07:19.808Z,14.80
2023-04-28T12:09:47.499Z,13.18
2023-04-28T12:12:17.242Z,14.57
2023-04-28T12:14:59.677Z,14.63
2023-04-28T12:17:32.492Z,15.15
2023-04-28T12:20:00.880Z,15.35
2023-04-28T12:22:27.841Z,15.45
2023-04-28T12:25:07.920Z,16.55
2023-04-28T12:27:38.520Z,15.65
2023-04-28T12:30:24.984Z,14.88
2023-04-28T12:32:51.840Z,15.30
2023-04-28T12:35:21.840Z,14.80
2023-04-28T12:37:48.485Z,13.37
2023-04-28T12:40:15.532Z,15.07
2023-04-28T12:42:42.660Z,13.68
2023-04-28T12:45:10.040Z,13.55
2023-04-28T12:47:37.851Z,13.05
2023-04-28T12:50:05.806Z,14.25
2023-04-28T12:52:35.994Z,14.57
2023-04-28T12:55:03.144Z,13.82
2023-04-28T12:57:29.877Z,16.42
2023-04-28T12:59:57.209Z,15.60
2023-04-28T13:02:24.272Z,14.40
2023-04-28T13:04:52.180Z,14.77
2023-04-28T13:07:19.197Z,15.65
2023-04-28T13:09:47.610Z,14.77
2023-04-28T13:12:15.002Z,15.38
2023-04-28T13:14:42.076Z,13.70
2023-04-28T13:17:09.171Z,13.95
2023-04-28T13:19:35.702Z,13.20
2023-04-28T13:22:05.156Z,13.57
2023-04-28T13:24:33.511Z,13.05
2023-04-28T13:27:00.496Z,13.50
2023-04-28T13:29:27.024Z,13.25
2023-04-28T13:31:53.558Z,13.30
2023-04-28T13:34:20.394Z,13.68
2023-04-28T13:36:50.678Z,12.95
2023-04-28T13:39:19.472Z,12.95
2023-04-28T13:41:46.068Z,12.63
2023-04-28T13:44:12.560Z,12.52
2023-04-28T13:46:39.077Z,12.07
2023-04-28T13:49:05.676Z,11.43
2023-04-28T13:51:35.442Z,11.48
2023-04-28T13:54:04.644Z,11.82
2023-04-28T13:56:32.159Z,10.82
2023-04-28T13:58:58.919Z,12.23
2023-04-28T14:01:25.790Z,13.10
2023-04-28T14:03:52.530Z,12.18
2023-04-28T14:06:19.149Z,11.80
2023-04-28T14:08:45.782Z,12.05
2023-04-28T14:11:12.342Z,11.60
2023-04-28T14:13:38.829Z,11.75
2023-04-28T14:16:05.788Z,11.88
2023-04-28T14:18:33.861Z,11.90
2023-04-28T14:21:02.106Z,11.55
2023-04-28T14:23:28.825Z,11.88
2023-04-28T14:25:58.966Z,11.50
2023-04-28T14:28:25.496Z,11.85
2023-04-28T14:30:54.021Z,10.48
2023-04-28T14:33:20.573Z,10.38
2023-04-28T14:35:47.313Z,10.18
2023-04-28T14:38:14.233Z,9.98
2023-04-28T14:40:42.951Z,9.68
2023-04-28T14:43:09.552Z,10.40
2023-04-28T14:45:37.179Z,10.88
2023-04-28T14:48:03.863Z,12.32
2023-04-28T14:50:30.719Z,12.68
2023-04-28T14:52:59.997Z,11.45
2023-04-28T14:55:26.644Z,11.65
2023-04-28T14:57:53.363Z,12.00
2023-04-28T15:00:20.023Z,12.02
2023-04-28T15:02:46.852Z,12.23
2023-04-28T15:05:13.540Z,11.80
2023-04-28T15:07:40.286Z,11.00
2023-04-28T15:10:07.627Z,10.93
2023-04-28T15:12:34.506Z,11.02
2023-04-28T15:15:01.037Z,10.23
2023-04-28T15:17:28.542Z,9.38
2023-04-28T15:19:55.313Z,10.55
2023-04-28T15:22:22.235Z,12.07
2023-04-28T15:24:49.421Z,12.23
2023-04-28T15:27:16.064Z,13.18
2023-04-28T15:29:42.692Z,13.40
2023-04-28T15:32:09.569Z,14.80
2023-04-28T15:34:36.059Z,14.68
2023-04-28T15:37:07.102Z,14.60
2023-04-28T15:39:33.749Z,13.90
2023-04-28T15:42:00.289Z,13.73
2023-04-28T15:44:29.224Z,12.55
2023-04-28T15:46:57.096Z,11.90
2023-04-28T15:49:23.656Z,14.63
2023-04-28T15:51:50.421Z,11.27
2023-04-28T15:54:17.047Z,13.07
2023-04-28T15:56:43.609Z,12.10
2023-04-28T15:59:14.893Z,11.88
2023-04-28T16:01:41.577Z,11.15
2023-04-28T16:04:08.322Z,11.13
2023-04-28T16:06:35.049Z,10.73
2023-04-28T16:09:01.957Z,11.00
2023-04-28T16:11:30.399Z,12.77
2023-04-28T16:13:57.094Z,13.63
2023-04-28T16:16:24.572Z,14.95
2023-04-28T16:18:51.134Z,13.40
2023-04-28T16:21:20.597Z,12.65
2023-04-28T16:23:47.138Z,12.77
2023-04-28T16:26:13.623Z,12.15
2023-04-28T16:28:40.124Z,10.63
2023-04-28T16:31:06.865Z,10.27
2023-04-28T16:33:33.498Z,9.60
2023-04-28T16:36:00.013Z,9.20
2023-04-28T16:38:26.594Z,8.73
2023-04-28T16:40:53.198Z,8.43
2023-04-28T16:43:19.741Z,8.30
2023-04-28T16:45:46.400Z,9.25
2023-04-28T16:48:16.061Z,9.23
2023-04-28T16:50:42.747Z,9.85
2023-04-28T16:53:09.242Z,9.45
2023-04-28T16:55:38.712Z,9.98
2023-04-28T16:58:05.731Z,9.20
2023-04-28T17:00:32.558Z,10.68
2023-04-28T17:02:59.308Z,9.20
2023-04-28T17:05:26.098Z,9.73
2023-04-28T17:07:55.055Z,10.40
2023-04-28T17:10:22.707Z,9.20
2023-04-28T17:12:49.264Z,9.10
2023-04-28T17:15:18.638Z,8.73
2023-04-28T17:17:49.969Z,9.30
2023-04-28T17:20:19.455Z,9.43
2023-04-28T17:22:47.008Z,8.68
2023-04-28T17:25:13.663Z,8.82
2023-04-28T17:27:40.433Z,8.77
2023-04-28T17:30:13.251Z,8.55
2023-04-28T17:32:40.818Z,9.50
2023-04-28T17:35:08.100Z,9.40
2023-04-28T17:37:35.257Z,10.07
2023-04-28T17:40:02.022Z,9.10
2023-04-28T17:42:30.856Z,8.77
2023-04-28T17:44:57.528Z,8.90
2023-04-28T17:47:24.107Z,10.45
2023-04-28T17:49:51.809Z,9.18
2023-04-28T17:52:18.411Z,8.90
2023-04-28T17:54:45.011Z,9.27
2023-04-28T17:57:12.528Z,8.68
2023-04-28T17:59:40.684Z,9.40
2023-04-28T18:02:11.111Z,10.07
2023-04-28T18:04:38.441Z,9.90
2023-04-28T18:07:06.379Z,9.77
2023-04-28T18:09:35.029Z,9.80
2023-04-28T18:12:05.876Z,9.80
2023-04-28T18:14:32.653Z,10.35
2023-04-28T18:16:59.497Z,10.63
2023-04-28T18:19:27.582Z,10.32
2023-04-28T18:21:58.158Z,10.57
2023-04-28T18:24:24.777Z,11.18
2023-04-28T18:26:51.447Z,10.20
2023-04-28T18:29:18.913Z,11.23
2023-04-28T18:31:46.279Z,12.02
2023-04-28T18:34:13.266Z,12.45
2023-04-28T18:36:39.872Z,11.45
2023-04-28T18:39:08.480Z,11.50
2023-04-28T18:41:35.844Z,12.70
2023-04-28T18:44:03.085Z,12.95
2023-04-28T18:46:30.015Z,13.93
2023-04-28T18:48:56.779Z,14.10
2023-04-28T18:51:23.338Z,15.25
2023-04-28T18:53:49.981Z,12.90
2023-04-28T18:56:17.269Z,13.57
2023-04-28T18:58:43.775Z,13.10
2023-04-28T19:01:17.139Z,12.32
2023-04-28T19:03:44.130Z,13.15
2023-04-28T19:06:11.097Z,13.38
2023-04-28T19:08:42.759Z,12.18
2023-04-28T19:11:09.765Z,14.60
2023-04-28T19:13:36.895Z,12.48
2023-04-28T19:16:04.554Z,13.95
2023-04-28T19:18:31.879Z,12.63
2023-04-28T19:21:02.803Z,11.73
2023-04-28T19:23:30.457Z,12.52
2023-04-28T19:25:58.336Z,12.43
2023-04-28T19:28:26.200Z,11.13
2023-04-28T19:30:57.680Z,11.05
2023-04-28T19:33:27.821Z,11.10
2023-04-28T19:35:55.013Z,11.10
2023-04-28T19:38:23.285Z,10.80
2023-04-28T19:40:50.989Z,9.95
2023-04-28T19:43:18.130Z,12.07
2023-04-28T19:45:46.662Z,11.30
2023-04-28T19:48:14.628Z,12.25
2023-04-28T19:50:42.217Z,11.35
2023-04-28T19:53:09.405Z,12.18
2023-04-28T19:55:36.562Z,12.73
2023-04-28T19:58:03.901Z,14.95
2023-04-28T20:00:32.311Z,13.75
2023-04-28T20:02:59.858Z,14.13
2023-04-28T20:05:27.072Z,13.50
2023-04-28T20:07:56.269Z,14.68
2023-04-28T20:10:26.459Z,13.20
2023-04-28T20:12:53.807Z,14.77
2023-04-28T20:15:20.770Z,14.13
2023-04-28T20:17:47.470Z,15.23
2023-04-28T20:20:15.779Z,14.73
2023-04-28T20:22:42.318Z,14.80
2023-04-28T20:25:10.874Z,15.80
2023-04-28T20:27:37.952Z,15.77
2023-04-28T20:30:05.160Z,15.25
2023-04-28T20:32:31.825Z,16.23
2023-04-28T20:34:58.497Z,16.20
2023-04-28T20:37:26.509Z,16.48
2023-04-28T20:39:53.207Z,16.88
2023-04-28T20:42:19.856Z,16.83
2023-04-28T20:44:46.606Z,17.00
2023-04-28T20:47:13.987Z,16.98
2023-04-28T20:49:40.501Z,16.08
2023-04-28T20:52:07.078Z,16.98
2023-04-28T20:54:35.673Z,18.48
2023-04-28T20:57:05.851Z,16.58
2023-04-28T20:59:33.037Z,17.98
2023-04-28T21:02:00.338Z,18.42
2023-04-28T21:04:28.318Z,18.83
2023-04-28T21:06:55.611Z,17.70
2023-04-28T21:09:25.105Z,18.65
2023-04-28T21:11:52.145Z,18.80
2023-04-28T21:14:18.865Z,19.42
2023-04-28T21:16:45.497Z,19.75
2023-04-28T21:19:12.097Z,20.27
2023-04-28T21:21:38.719Z,18.65
2023-04-28T21:24:06.160Z,20.33
2023-04-28T21:26:33.005Z,20.15
2023-04-28T21:28:59.995Z,19.88
2023-04-28T21:31:26.690Z,20.52
2023-04-28T21:33:53.600Z,20.40
2023-04-28T21:36:20.290Z,21.17
2023-04-28T21:38:46.878Z,21.27
2023-04-28T21:41:13.433Z,25.17
2023-04-28T21:43:40.506Z,24.05
2023-04-28T21:46:07.126Z,23.85
2023-04-28T21:48:33.779Z,23.33
2023-04-28T21:51:01.253Z,23.92
2023-04-28T21:53:28.615Z,23.77
2023-04-28T21:55:55.620Z,24.92
2023-04-28T21:58:22.220Z,23.38
2023-04-28T22:00:48.873Z,22.75
2023-04-28T22:03:16.190Z,21.70
2023-04-28T22:05:44.628Z,20.88
2023-04-28T22:08:13.466Z,19.70
2023-04-28T22:10:40.681Z,19.95
2023-04-28T22:13:07.423Z,18.45
2023-04-28T22:15:34.566Z,18.40
2023-04-28T22:18:01.363Z,18.20
2023-04-28T22:20:28.123Z,17.77
2023-04-28T22:22:54.643Z,17.25
2023-04-28T22:25:21.411Z,16.85
2023-04-28T22:27:49.321Z,16.52
2023-04-28T22:30:16.279Z,16.50
2023-04-28T22:32:47.369Z,15.18
2023-04-28T22:35:16.726Z,16.17
2023-04-28T22:37:43.698Z,15.95
2023-04-28T22:40:11.116Z,15.75
2023-04-28T22:42:39.129Z,15.73
2023-04-28T22:45:06.702Z,15.07
2023-04-28T22:47:34.400Z,15.90
2023-04-28T22:50:03.815Z,14.80
2023-04-28T22:52:30.375Z,16.50
2023-04-28T22:54:57.128Z,13.48
2023-04-28T22:57:23.766Z,15.85
2023-04-28T22:59:50.642Z,16.13
2023-04-28T23:02:17.745Z,15.52
2023-04-28T23:04:44.434Z,15.10
2023-04-28T23:07:11.210Z,14.45
2023-04-28T23:09:38.190Z,14.90
2023-04-28T23:12:05.016Z,14.13
2023-04-28T23:14:32.357Z,15.93
2023-04-28T23:16:58.888Z,15.65
2023-04-28T23:19:25.502Z,14.80
2023-04-28T23:21:52.009Z,16.83
2023-04-28T23:24:18.526Z,16.00
2023-04-28T23:26:46.667Z,17.17
2023-04-28T23:29:13.168Z,18.40
2023-04-28T23:31:40.049Z,17.75
2023-04-28T23:34:07.065Z,19.05
2023-04-28T23:36:33.677Z,19.05
2023-04-28T23:39:01.056Z,20.35
2023-04-28T23:41:28.102Z,19.60
2023-04-28T23:43:54.709Z,20.02
2023-04-28T23:46:21.522Z,18.73
2023-04-28T23:48:48.163Z,20.30
2023-04-28T23:51:14.941Z,20.90
2023-04-28T23:53:42.000Z,20.35
2023-04-28T23:56:08.649Z,21.65
2023-04-28T23:58:35.209Z,21.33
